sensor_id;sensor_type;location;lat;lon;timestamp;temperature;humidity
41447;DHT22;27185;52.040;4.490;2022-11-30T00:00:19;8.90;99.90
41447;DHT22;27185;52.040;4.490;2022-11-30T00:03:06;8.80;99.90
41447;DHT22;27185;52.040;4.490;2022-11-30T00:05:52;8.80;99.90
41447;DHT22;27185;52.040;4.490;2022-11-30T00:08:38;8.70;99.90
41447;DHT22;27185;52.040;4.490;2022-11-30T00:11:26;8.70;99.90
41447;DHT22;27185;52.040;4.490;2022-11-30T00:14:12;8.70;99.90
41447;DHT22;27185;52.040;4.490;2022-11-30T00:16:58;8.60;99.90
41447;DHT22;27185;52.040;4.490;2022-11-30T00:19:43;8.60;99.90
41447;DHT22;27185;52.040;4.490;2022-11-30T00:22:29;8.50;99.90
41447;DHT22;27185;52.040;4.490;2022-11-30T00:25:14;8.50;99.90
41447;DHT22;27185;52.040;4.490;2022-11-30T00:28:00;8.40;99.90
41447;DHT22;27185;52.040;4.490;2022-11-30T00:30:56;8.40;99.90
41447;DHT22;27185;52.040;4.490;2022-11-30T00:33:42;8.40;99.90
41447;DHT22;27185;52.040;4.490;2022-11-30T00:36:28;8.40;99.90
41447;DHT22;27185;52.040;4.490;2022-11-30T00:39:13;8.40;99.90
41447;DHT22;27185;52.040;4.490;2022-11-30T00:41:59;8.40;99.90
41447;DHT22;27185;52.040;4.490;2022-11-30T00:44:44;8.40;99.90
41447;DHT22;27185;52.040;4.490;2022-11-30T00:47:30;8.50;99.90
41447;DHT22;27185;52.040;4.490;2022-11-30T00:50:16;8.50;99.90
41447;DHT22;27185;52.040;4.490;2022-11-30T00:53:01;8.60;99.90
41447;DHT22;27185;52.040;4.490;2022-11-30T00:55:47;8.60;99.90
41447;DHT22;27185;52.040;4.490;2022-11-30T00:58:32;8.60;99.90
41447;DHT22;27185;52.040;4.490;2022-11-30T01:01:18;8.60;99.90
41447;DHT22;27185;52.040;4.490;2022-11-30T01:04:04;8.70;99.90
41447;DHT22;27185;52.040;4.490;2022-11-30T01:06:49;8.70;99.90
41447;DHT22;27185;52.040;4.490;2022-11-30T01:09:35;8.80;99.90
41447;DHT22;27185;52.040;4.490;2022-11-30T01:12:20;8.80;99.90
41447;DHT22;27185;52.040;4.490;2022-11-30T01:15:06;8.80;99.90
41447;DHT22;27185;52.040;4.490;2022-11-30T01:17:52;8.90;99.90
41447;DHT22;27185;52.040;4.490;2022-11-30T01:20:41;8.90;99.90
41447;DHT22;27185;52.040;4.490;2022-11-30T01:23:27;8.90;99.90
41447;DHT22;27185;52.040;4.490;2022-11-30T01:26:13;9.00;99.90
41447;DHT22;27185;52.040;4.490;2022-11-30T01:28:59;9.00;99.90
41447;DHT22;27185;52.040;4.490;2022-11-30T01:31:44;9.00;99.90
41447;DHT22;27185;52.040;4.490;2022-11-30T01:34:30;9.10;99.90
41447;DHT22;27185;52.040;4.490;2022-11-30T01:37:15;9.10;99.90
41447;DHT22;27185;52.040;4.490;2022-11-30T01:40:01;9.10;99.90
41447;DHT22;27185;52.040;4.490;2022-11-30T01:42:46;9.20;99.90
41447;DHT22;27185;52.040;4.490;2022-11-30T01:45:32;9.20;99.90
41447;DHT22;27185;52.040;4.490;2022-11-30T01:48:17;9.20;99.90
41447;DHT22;27185;52.040;4.490;2022-11-30T01:51:03;9.30;99.90
41447;DHT22;27185;52.040;4.490;2022-11-30T01:53:50;9.30;99.90
41447;DHT22;27185;52.040;4.490;2022-11-30T01:56:42;9.30;99.90
41447;DHT22;27185;52.040;4.490;2022-11-30T01:59:29;9.30;99.90
41447;DHT22;27185;52.040;4.490;2022-11-30T02:02:18;9.40;99.90
41447;DHT22;27185;52.040;4.490;2022-11-30T02:05:05;9.40;99.90
41447;DHT22;27185;52.040;4.490;2022-11-30T02:07:51;9.40;99.90
41447;DHT22;27185;52.040;4.490;2022-11-30T02:10:44;9.40;99.90
41447;DHT22;27185;52.040;4.490;2022-11-30T02:13:43;9.40;99.90
41447;DHT22;27185;52.040;4.490;2022-11-30T02:16:45;9.40;99.90
41447;DHT22;27185;52.040;4.490;2022-11-30T02:20:08;9.30;99.90
41447;DHT22;27185;52.040;4.490;2022-11-30T02:26:46;9.20;99.90
41447;DHT22;27185;52.040;4.490;2022-11-30T02:29:24;9.10;99.90
41447;DHT22;27185;52.040;4.490;2022-11-30T02:32:20;9.00;99.90
41447;DHT22;27185;52.040;4.490;2022-11-30T02:35:08;9.00;99.90
41447;DHT22;27185;52.040;4.490;2022-11-30T02:37:56;8.90;99.90
41447;DHT22;27185;52.040;4.490;2022-11-30T02:40:42;8.90;99.90
41447;DHT22;27185;52.040;4.490;2022-11-30T02:43:29;8.80;99.90
41447;DHT22;27185;52.040;4.490;2022-11-30T02:46:55;8.80;99.90
41447;DHT22;27185;52.040;4.490;2022-11-30T02:50:27;8.80;99.90
41447;DHT22;27185;52.040;4.490;2022-11-30T02:52:53;8.80;99.90
41447;DHT22;27185;52.040;4.490;2022-11-30T02:55:39;8.70;99.90
41447;DHT22;27185;52.040;4.490;2022-11-30T02:58:25;8.70;99.90
41447;DHT22;27185;52.040;4.490;2022-11-30T03:01:10;8.70;99.90
41447;DHT22;27185;52.040;4.490;2022-11-30T03:03:56;8.70;99.90
41447;DHT22;27185;52.040;4.490;2022-11-30T03:06:41;8.70;99.90
41447;DHT22;27185;52.040;4.490;2022-11-30T03:09:27;8.70;99.90
41447;DHT22;27185;52.040;4.490;2022-11-30T03:12:12;8.60;99.90
41447;DHT22;27185;52.040;4.490;2022-11-30T03:14:58;8.60;99.90
41447;DHT22;27185;52.040;4.490;2022-11-30T03:17:43;8.60;99.90
41447;DHT22;27185;52.040;4.490;2022-11-30T03:20:29;8.60;99.90
41447;DHT22;27185;52.040;4.490;2022-11-30T03:23:14;8.60;99.90
41447;DHT22;27185;52.040;4.490;2022-11-30T03:26:00;8.50;99.90
41447;DHT22;27185;52.040;4.490;2022-11-30T03:28:46;8.50;99.90
41447;DHT22;27185;52.040;4.490;2022-11-30T03:31:32;8.40;99.90
41447;DHT22;27185;52.040;4.490;2022-11-30T03:34:17;8.40;99.90
41447;DHT22;27185;52.040;4.490;2022-11-30T03:37:03;8.40;99.90
41447;DHT22;27185;52.040;4.490;2022-11-30T03:39:48;8.40;99.90
41447;DHT22;27185;52.040;4.490;2022-11-30T03:42:34;8.30;99.90
41447;DHT22;27185;52.040;4.490;2022-11-30T03:45:19;8.30;99.90
41447;DHT22;27185;52.040;4.490;2022-11-30T03:48:05;8.30;99.90
41447;DHT22;27185;52.040;4.490;2022-11-30T03:50:51;8.30;99.90
41447;DHT22;27185;52.040;4.490;2022-11-30T03:53:37;8.40;99.90
41447;DHT22;27185;52.040;4.490;2022-11-30T03:56:22;8.40;99.90
41447;DHT22;27185;52.040;4.490;2022-11-30T03:59:08;8.40;99.90
41447;DHT22;27185;52.040;4.490;2022-11-30T04:01:54;8.40;99.90
41447;DHT22;27185;52.040;4.490;2022-11-30T04:04:39;8.40;99.90
41447;DHT22;27185;52.040;4.490;2022-11-30T04:07:25;8.40;99.90
41447;DHT22;27185;52.040;4.490;2022-11-30T04:10:10;8.40;99.90
41447;DHT22;27185;52.040;4.490;2022-11-30T04:12:56;8.30;99.90
41447;DHT22;27185;52.040;4.490;2022-11-30T04:15:41;8.30;99.90
41447;DHT22;27185;52.040;4.490;2022-11-30T04:18:28;8.20;99.90
41447;DHT22;27185;52.040;4.490;2022-11-30T04:21:14;8.20;99.90
41447;DHT22;27185;52.040;4.490;2022-11-30T04:24:00;8.10;99.90
41447;DHT22;27185;52.040;4.490;2022-11-30T04:26:45;8.10;99.90
41447;DHT22;27185;52.040;4.490;2022-11-30T04:29:31;8.00;99.90
41447;DHT22;27185;52.040;4.490;2022-11-30T04:32:17;7.90;99.90
41447;DHT22;27185;52.040;4.490;2022-11-30T04:35:02;7.90;99.90
41447;DHT22;27185;52.040;4.490;2022-11-30T04:37:48;7.80;99.90
41447;DHT22;27185;52.040;4.490;2022-11-30T04:40:33;7.70;99.90
41447;DHT22;27185;52.040;4.490;2022-11-30T04:43:23;7.70;99.90
41447;DHT22;27185;52.040;4.490;2022-11-30T04:46:09;7.70;99.90
41447;DHT22;27185;52.040;4.490;2022-11-30T04:48:55;7.70;99.90
41447;DHT22;27185;52.040;4.490;2022-11-30T04:51:40;7.60;99.90
41447;DHT22;27185;52.040;4.490;2022-11-30T04:54:26;7.70;99.90
41447;DHT22;27185;52.040;4.490;2022-11-30T04:57:11;7.60;99.90
41447;DHT22;27185;52.040;4.490;2022-11-30T04:59:57;7.70;99.90
41447;DHT22;27185;52.040;4.490;2022-11-30T05:02:42;7.70;99.90
41447;DHT22;27185;52.040;4.490;2022-11-30T05:05:28;7.80;99.90
41447;DHT22;27185;52.040;4.490;2022-11-30T05:08:14;7.80;99.90
41447;DHT22;27185;52.040;4.490;2022-11-30T05:10:59;7.80;99.90
41447;DHT22;27185;52.040;4.490;2022-11-30T05:13:45;7.90;99.90
41447;DHT22;27185;52.040;4.490;2022-11-30T05:16:30;7.90;99.90
41447;DHT22;27185;52.040;4.490;2022-11-30T05:19:16;7.90;99.90
41447;DHT22;27185;52.040;4.490;2022-11-30T05:22:02;8.00;99.90
41447;DHT22;27185;52.040;4.490;2022-11-30T05:24:47;8.00;99.90
41447;DHT22;27185;52.040;4.490;2022-11-30T05:27:33;8.00;99.90
41447;DHT22;27185;52.040;4.490;2022-11-30T05:30:19;8.00;99.90
41447;DHT22;27185;52.040;4.490;2022-11-30T05:33:05;8.00;99.90
41447;DHT22;27185;52.040;4.490;2022-11-30T05:35:51;8.00;99.90
41447;DHT22;27185;52.040;4.490;2022-11-30T05:38:36;8.10;99.90
41447;DHT22;27185;52.040;4.490;2022-11-30T05:41:22;8.10;99.90
41447;DHT22;27185;52.040;4.490;2022-11-30T05:44:07;8.10;99.90
41447;DHT22;27185;52.040;4.490;2022-11-30T05:46:53;8.10;99.90
41447;DHT22;27185;52.040;4.490;2022-11-30T05:49:38;8.10;99.90
41447;DHT22;27185;52.040;4.490;2022-11-30T05:52:24;8.20;99.90
41447;DHT22;27185;52.040;4.490;2022-11-30T05:55:10;8.20;99.90
41447;DHT22;27185;52.040;4.490;2022-11-30T05:57:55;8.20;99.90
41447;DHT22;27185;52.040;4.490;2022-11-30T06:00:41;8.20;99.90
41447;DHT22;27185;52.040;4.490;2022-11-30T06:03:29;8.20;99.90
41447;DHT22;27185;52.040;4.490;2022-11-30T06:06:15;8.20;99.90
41447;DHT22;27185;52.040;4.490;2022-11-30T06:09:01;8.30;99.90
41447;DHT22;27185;52.040;4.490;2022-11-30T06:11:47;8.30;99.90
41447;DHT22;27185;52.040;4.490;2022-11-30T06:14:33;8.30;99.90
41447;DHT22;27185;52.040;4.490;2022-11-30T06:17:18;8.40;99.90
41447;DHT22;27185;52.040;4.490;2022-11-30T06:20:07;8.40;99.90
41447;DHT22;27185;52.040;4.490;2022-11-30T06:22:53;8.40;99.90
41447;DHT22;27185;52.040;4.490;2022-11-30T06:25:39;8.40;99.90
41447;DHT22;27185;52.040;4.490;2022-11-30T06:28:24;8.50;99.90
41447;DHT22;27185;52.040;4.490;2022-11-30T06:31:10;8.50;99.90
41447;DHT22;27185;52.040;4.490;2022-11-30T06:33:56;8.50;99.90
41447;DHT22;27185;52.040;4.490;2022-11-30T06:36:42;8.50;99.90
41447;DHT22;27185;52.040;4.490;2022-11-30T06:39:28;8.60;99.90
41447;DHT22;27185;52.040;4.490;2022-11-30T06:42:13;8.60;99.90
41447;DHT22;27185;52.040;4.490;2022-11-30T06:44:59;8.60;99.90
41447;DHT22;27185;52.040;4.490;2022-11-30T06:47:44;8.60;99.90
41447;DHT22;27185;52.040;4.490;2022-11-30T06:50:30;8.70;99.90
41447;DHT22;27185;52.040;4.490;2022-11-30T06:53:16;8.70;99.90
41447;DHT22;27185;52.040;4.490;2022-11-30T06:56:05;8.80;99.90
41447;DHT22;27185;52.040;4.490;2022-11-30T06:58:51;8.80;99.90
41447;DHT22;27185;52.040;4.490;2022-11-30T07:01:38;8.90;99.90
41447;DHT22;27185;52.040;4.490;2022-11-30T07:04:24;8.90;99.90
41447;DHT22;27185;52.040;4.490;2022-11-30T07:07:09;8.90;99.90
41447;DHT22;27185;52.040;4.490;2022-11-30T07:09:56;8.90;99.90
41447;DHT22;27185;52.040;4.490;2022-11-30T07:12:41;9.00;99.90
41447;DHT22;27185;52.040;4.490;2022-11-30T07:15:29;9.00;99.90
41447;DHT22;27185;52.040;4.490;2022-11-30T07:18:15;9.00;99.90
41447;DHT22;27185;52.040;4.490;2022-11-30T07:21:02;9.10;99.90
41447;DHT22;27185;52.040;4.490;2022-11-30T07:23:48;9.10;99.90
41447;DHT22;27185;52.040;4.490;2022-11-30T07:26:52;9.10;99.90
41447;DHT22;27185;52.040;4.490;2022-11-30T07:29:38;9.10;99.90
41447;DHT22;27185;52.040;4.490;2022-11-30T07:32:23;9.20;99.90
41447;DHT22;27185;52.040;4.490;2022-11-30T07:35:09;9.20;99.90
41447;DHT22;27185;52.040;4.490;2022-11-30T07:37:54;9.20;99.90
41447;DHT22;27185;52.040;4.490;2022-11-30T07:40:40;9.20;99.90
41447;DHT22;27185;52.040;4.490;2022-11-30T07:43:27;9.30;99.90
41447;DHT22;27185;52.040;4.490;2022-11-30T07:46:14;9.30;99.90
41447;DHT22;27185;52.040;4.490;2022-11-30T07:49:09;9.30;99.90
41447;DHT22;27185;52.040;4.490;2022-11-30T07:51:55;9.30;99.90
41447;DHT22;27185;52.040;4.490;2022-11-30T07:54:41;9.30;99.90
41447;DHT22;27185;52.040;4.490;2022-11-30T07:57:26;9.30;99.90
41447;DHT22;27185;52.040;4.490;2022-11-30T08:00:12;9.30;99.90
41447;DHT22;27185;52.040;4.490;2022-11-30T08:02:58;9.30;99.90
41447;DHT22;27185;52.040;4.490;2022-11-30T08:05:44;9.40;99.90
41447;DHT22;27185;52.040;4.490;2022-11-30T08:08:31;9.40;99.90
41447;DHT22;27185;52.040;4.490;2022-11-30T08:11:19;9.40;99.90
41447;DHT22;27185;52.040;4.490;2022-11-30T08:14:05;9.40;99.90
41447;DHT22;27185;52.040;4.490;2022-11-30T08:16:50;9.40;99.90
41447;DHT22;27185;52.040;4.490;2022-11-30T08:19:36;9.50;99.90
41447;DHT22;27185;52.040;4.490;2022-11-30T08:22:22;9.50;99.90
41447;DHT22;27185;52.040;4.490;2022-11-30T08:25:08;9.50;99.90
41447;DHT22;27185;52.040;4.490;2022-11-30T08:27:53;9.60;99.90
41447;DHT22;27185;52.040;4.490;2022-11-30T08:30:39;9.60;99.90
41447;DHT22;27185;52.040;4.490;2022-11-30T08:33:25;9.60;99.90
41447;DHT22;27185;52.040;4.490;2022-11-30T08:36:16;9.70;99.90
41447;DHT22;27185;52.040;4.490;2022-11-30T08:39:04;9.70;99.90
41447;DHT22;27185;52.040;4.490;2022-11-30T08:41:49;9.70;99.90
41447;DHT22;27185;52.040;4.490;2022-11-30T08:44:37;9.80;99.90
41447;DHT22;27185;52.040;4.490;2022-11-30T08:47:23;9.80;99.90
41447;DHT22;27185;52.040;4.490;2022-11-30T08:50:08;9.80;99.90
41447;DHT22;27185;52.040;4.490;2022-11-30T08:52:54;9.90;99.90
41447;DHT22;27185;52.040;4.490;2022-11-30T08:55:40;9.90;99.90
41447;DHT22;27185;52.040;4.490;2022-11-30T08:58:29;10.00;99.90
41447;DHT22;27185;52.040;4.490;2022-11-30T09:01:20;10.00;99.90
41447;DHT22;27185;52.040;4.490;2022-11-30T09:04:06;10.10;99.90
41447;DHT22;27185;52.040;4.490;2022-11-30T09:06:51;10.10;99.90
41447;DHT22;27185;52.040;4.490;2022-11-30T09:09:37;10.20;99.90
41447;DHT22;27185;52.040;4.490;2022-11-30T09:12:23;10.20;99.90
41447;DHT22;27185;52.040;4.490;2022-11-30T09:15:09;10.30;99.90
41447;DHT22;27185;52.040;4.490;2022-11-30T09:17:55;10.30;99.90
41447;DHT22;27185;52.040;4.490;2022-11-30T09:20:40;10.40;99.90
41447;DHT22;27185;52.040;4.490;2022-11-30T09:23:26;10.40;99.90
41447;DHT22;27185;52.040;4.490;2022-11-30T09:26:14;10.40;99.90
41447;DHT22;27185;52.040;4.490;2022-11-30T09:29:01;10.50;99.90
41447;DHT22;27185;52.040;4.490;2022-11-30T09:31:47;10.60;99.90
41447;DHT22;27185;52.040;4.490;2022-11-30T09:34:33;10.60;99.90
41447;DHT22;27185;52.040;4.490;2022-11-30T09:37:19;10.60;99.90
41447;DHT22;27185;52.040;4.490;2022-11-30T09:40:05;10.70;99.90
41447;DHT22;27185;52.040;4.490;2022-11-30T09:46:12;10.80;99.90
41447;DHT22;27185;52.040;4.490;2022-11-30T09:49:03;10.80;99.90
41447;DHT22;27185;52.040;4.490;2022-11-30T09:51:51;10.90;99.90
41447;DHT22;27185;52.040;4.490;2022-11-30T09:54:43;10.90;99.90
41447;DHT22;27185;52.040;4.490;2022-11-30T09:57:53;11.00;99.90
41447;DHT22;27185;52.040;4.490;2022-11-30T10:00:39;11.00;99.90
41447;DHT22;27185;52.040;4.490;2022-11-30T10:03:25;11.10;99.90
41447;DHT22;27185;52.040;4.490;2022-11-30T10:12:08;11.20;99.90
41447;DHT22;27185;52.040;4.490;2022-11-30T10:15:05;11.20;99.90
41447;DHT22;27185;52.040;4.490;2022-11-30T10:17:55;11.20;99.90
41447;DHT22;27185;52.040;4.490;2022-11-30T10:26:33;11.40;99.90
41447;DHT22;27185;52.040;4.490;2022-11-30T10:29:23;11.40;99.90
41447;DHT22;27185;52.040;4.490;2022-11-30T10:32:19;11.40;99.90
41447;DHT22;27185;52.040;4.490;2022-11-30T10:35:20;11.50;99.90
41447;DHT22;27185;52.040;4.490;2022-11-30T10:38:34;11.50;99.90
41447;DHT22;27185;52.040;4.490;2022-11-30T10:41:31;11.50;99.90
41447;DHT22;27185;52.040;4.490;2022-11-30T10:44:23;11.50;99.90
41447;DHT22;27185;52.040;4.490;2022-11-30T10:47:16;11.60;99.90
41447;DHT22;27185;52.040;4.490;2022-11-30T10:50:05;11.60;99.90
41447;DHT22;27185;52.040;4.490;2022-11-30T10:52:52;11.60;99.90
41447;DHT22;27185;52.040;4.490;2022-11-30T10:55:48;11.70;99.90
41447;DHT22;27185;52.040;4.490;2022-11-30T10:58:40;11.80;99.90
41447;DHT22;27185;52.040;4.490;2022-11-30T11:01:40;11.80;99.90
41447;DHT22;27185;52.040;4.490;2022-11-30T11:04:25;11.80;99.90
41447;DHT22;27185;52.040;4.490;2022-11-30T11:07:14;11.90;99.90
41447;DHT22;27185;52.040;4.490;2022-11-30T11:10:00;11.80;99.90
41447;DHT22;27185;52.040;4.490;2022-11-30T11:12:51;11.80;99.90
41447;DHT22;27185;52.040;4.490;2022-11-30T11:15:36;11.80;99.90
41447;DHT22;27185;52.040;4.490;2022-11-30T11:18:24;11.70;99.90
41447;DHT22;27185;52.040;4.490;2022-11-30T11:23:56;11.60;99.90
41447;DHT22;27185;52.040;4.490;2022-11-30T11:26:49;11.50;99.90
41447;DHT22;27185;52.040;4.490;2022-11-30T11:29:35;11.50;99.90
41447;DHT22;27185;52.040;4.490;2022-11-30T11:32:22;11.50;99.90
41447;DHT22;27185;52.040;4.490;2022-11-30T11:38:27;11.50;99.90
41447;DHT22;27185;52.040;4.490;2022-11-30T11:41:27;11.50;99.90
41447;DHT22;27185;52.040;4.490;2022-11-30T11:44:21;11.60;99.90
41447;DHT22;27185;52.040;4.490;2022-11-30T11:47:24;11.60;99.90
41447;DHT22;27185;52.040;4.490;2022-11-30T11:50:24;11.70;99.90
41447;DHT22;27185;52.040;4.490;2022-11-30T11:53:20;11.80;99.90
41447;DHT22;27185;52.040;4.490;2022-11-30T11:56:31;11.90;99.90
41447;DHT22;27185;52.040;4.490;2022-11-30T12:11:20;12.50;99.90
41447;DHT22;27185;52.040;4.490;2022-11-30T12:14:15;12.60;99.90
41447;DHT22;27185;52.040;4.490;2022-11-30T12:17:11;12.60;99.90
41447;DHT22;27185;52.040;4.490;2022-11-30T12:23:12;12.50;99.90
41447;DHT22;27185;52.040;4.490;2022-11-30T12:32:22;12.50;99.90
41447;DHT22;27185;52.040;4.490;2022-11-30T12:35:22;12.50;99.90
41447;DHT22;27185;52.040;4.490;2022-11-30T12:38:29;12.40;99.90
41447;DHT22;27185;52.040;4.490;2022-11-30T12:41:29;12.50;99.90
41447;DHT22;27185;52.040;4.490;2022-11-30T12:44:40;12.50;99.90
41447;DHT22;27185;52.040;4.490;2022-11-30T12:47:41;12.50;99.90
41447;DHT22;27185;52.040;4.490;2022-11-30T12:53:45;12.50;99.90
41447;DHT22;27185;52.040;4.490;2022-11-30T12:56:53;12.50;99.90
41447;DHT22;27185;52.040;4.490;2022-11-30T13:00:00;12.60;99.90
41447;DHT22;27185;52.040;4.490;2022-11-30T13:06:16;12.50;99.90
41447;DHT22;27185;52.040;4.490;2022-11-30T13:09:19;12.50;99.90
41447;DHT22;27185;52.040;4.490;2022-11-30T13:12:12;12.50;99.90
41447;DHT22;27185;52.040;4.490;2022-11-30T13:15:02;12.50;99.90
41447;DHT22;27185;52.040;4.490;2022-11-30T13:17:49;12.60;99.90
41447;DHT22;27185;52.040;4.490;2022-11-30T13:20:54;12.70;99.90
41447;DHT22;27185;52.040;4.490;2022-11-30T13:24:04;12.80;99.90
41447;DHT22;27185;52.040;4.490;2022-11-30T13:27:13;12.90;99.90
41447;DHT22;27185;52.040;4.490;2022-11-30T13:32:51;13.00;99.90
41447;DHT22;27185;52.040;4.490;2022-11-30T13:38:22;13.00;99.90
41447;DHT22;27185;52.040;4.490;2022-11-30T13:41:08;13.00;99.90
41447;DHT22;27185;52.040;4.490;2022-11-30T13:43:54;12.90;99.90
41447;DHT22;27185;52.040;4.490;2022-11-30T13:46:47;12.90;99.90
41447;DHT22;27185;52.040;4.490;2022-11-30T13:49:34;12.80;99.90
41447;DHT22;27185;52.040;4.490;2022-11-30T13:58:34;12.70;99.90
41447;DHT22;27185;52.040;4.490;2022-11-30T14:01:23;12.60;99.90
41447;DHT22;27185;52.040;4.490;2022-11-30T14:07:14;12.40;99.90
41447;DHT22;27185;52.040;4.490;2022-11-30T14:16:27;12.30;99.90
41447;DHT22;27185;52.040;4.490;2022-11-30T14:19:14;12.30;99.90
41447;DHT22;27185;52.040;4.490;2022-11-30T14:21:59;12.30;99.90
41447;DHT22;27185;52.040;4.490;2022-11-30T14:24:46;12.20;99.90
41447;DHT22;27185;52.040;4.490;2022-11-30T14:27:34;12.20;99.90
41447;DHT22;27185;52.040;4.490;2022-11-30T14:30:22;12.20;99.90
41447;DHT22;27185;52.040;4.490;2022-11-30T14:33:15;12.20;99.90
41447;DHT22;27185;52.040;4.490;2022-11-30T14:36:01;12.20;99.90
41447;DHT22;27185;52.040;4.490;2022-11-30T14:38:47;12.20;99.90
41447;DHT22;27185;52.040;4.490;2022-11-30T14:41:33;12.10;99.90
41447;DHT22;27185;52.040;4.490;2022-11-30T14:44:19;12.10;99.90
41447;DHT22;27185;52.040;4.490;2022-11-30T14:47:32;12.10;99.90
41447;DHT22;27185;52.040;4.490;2022-11-30T14:50:24;12.10;99.90
41447;DHT22;27185;52.040;4.490;2022-11-30T14:53:39;12.00;99.90
41447;DHT22;27185;52.040;4.490;2022-11-30T14:56:49;12.00;99.90
41447;DHT22;27185;52.040;4.490;2022-11-30T14:59:48;12.00;99.90
41447;DHT22;27185;52.040;4.490;2022-11-30T15:02:36;11.90;99.90
41447;DHT22;27185;52.040;4.490;2022-11-30T15:05:24;11.90;99.90
41447;DHT22;27185;52.040;4.490;2022-11-30T15:08:14;11.90;99.90
41447;DHT22;27185;52.040;4.490;2022-11-30T15:11:04;11.90;99.90
41447;DHT22;27185;52.040;4.490;2022-11-30T15:13:52;11.90;99.90
41447;DHT22;27185;52.040;4.490;2022-11-30T15:16:46;11.80;99.90
41447;DHT22;27185;52.040;4.490;2022-11-30T15:19:32;11.80;99.90
41447;DHT22;27185;52.040;4.490;2022-11-30T15:22:23;11.80;99.90
41447;DHT22;27185;52.040;4.490;2022-11-30T15:25:11;11.80;99.90
41447;DHT22;27185;52.040;4.490;2022-11-30T15:27:58;11.70;99.90
41447;DHT22;27185;52.040;4.490;2022-11-30T15:30:45;11.70;99.90
41447;DHT22;27185;52.040;4.490;2022-11-30T15:33:45;11.70;99.90
41447;DHT22;27185;52.040;4.490;2022-11-30T15:36:36;11.70;99.90
41447;DHT22;27185;52.040;4.490;2022-11-30T15:39:25;11.60;99.90
41447;DHT22;27185;52.040;4.490;2022-11-30T15:42:18;11.60;99.90
41447;DHT22;27185;52.040;4.490;2022-11-30T15:45:23;11.60;99.90
41447;DHT22;27185;52.040;4.490;2022-11-30T15:51:22;11.60;99.90
41447;DHT22;27185;52.040;4.490;2022-11-30T15:54:08;11.50;99.90
41447;DHT22;27185;52.040;4.490;2022-11-30T15:56:55;11.40;99.90
41447;DHT22;27185;52.040;4.490;2022-11-30T15:59:41;11.40;99.90
41447;DHT22;27185;52.040;4.490;2022-11-30T16:02:32;11.40;99.90
41447;DHT22;27185;52.040;4.490;2022-11-30T16:05:22;11.40;99.90
41447;DHT22;27185;52.040;4.490;2022-11-30T16:08:17;11.30;99.90
41447;DHT22;27185;52.040;4.490;2022-11-30T16:11:03;11.30;99.90
41447;DHT22;27185;52.040;4.490;2022-11-30T16:13:49;11.20;99.90
41447;DHT22;27185;52.040;4.490;2022-11-30T16:16:35;11.20;99.90
41447;DHT22;27185;52.040;4.490;2022-11-30T16:19:21;11.20;99.90
41447;DHT22;27185;52.040;4.490;2022-11-30T16:22:09;11.10;99.90
41447;DHT22;27185;52.040;4.490;2022-11-30T16:24:55;11.00;99.90
41447;DHT22;27185;52.040;4.490;2022-11-30T16:27:42;11.00;99.90
41447;DHT22;27185;52.040;4.490;2022-11-30T16:30:29;10.90;99.90
41447;DHT22;27185;52.040;4.490;2022-11-30T16:33:20;10.90;99.90
41447;DHT22;27185;52.040;4.490;2022-11-30T16:36:07;10.80;99.90
41447;DHT22;27185;52.040;4.490;2022-11-30T16:38:53;10.80;99.90
41447;DHT22;27185;52.040;4.490;2022-11-30T16:41:39;10.80;99.90
41447;DHT22;27185;52.040;4.490;2022-11-30T16:44:25;10.80;99.90
41447;DHT22;27185;52.040;4.490;2022-11-30T16:47:10;10.70;99.90
41447;DHT22;27185;52.040;4.490;2022-11-30T16:49:56;10.70;99.90
41447;DHT22;27185;52.040;4.490;2022-11-30T16:52:42;10.70;99.90
41447;DHT22;27185;52.040;4.490;2022-11-30T16:55:30;10.60;99.90
41447;DHT22;27185;52.040;4.490;2022-11-30T16:58:15;10.50;99.90
41447;DHT22;27185;52.040;4.490;2022-11-30T17:01:02;10.60;99.90
41447;DHT22;27185;52.040;4.490;2022-11-30T17:03:50;10.40;99.90
41447;DHT22;27185;52.040;4.490;2022-11-30T17:06:37;10.30;99.90
41447;DHT22;27185;52.040;4.490;2022-11-30T17:09:22;10.20;99.90
41447;DHT22;27185;52.040;4.490;2022-11-30T17:12:08;10.10;99.90
41447;DHT22;27185;52.040;4.490;2022-11-30T17:14:53;9.90;99.90
41447;DHT22;27185;52.040;4.490;2022-11-30T17:17:39;9.80;99.90
41447;DHT22;27185;52.040;4.490;2022-11-30T17:20:25;9.70;99.90
41447;DHT22;27185;52.040;4.490;2022-11-30T17:23:11;9.50;99.90
41447;DHT22;27185;52.040;4.490;2022-11-30T17:25:57;9.40;99.90
41447;DHT22;27185;52.040;4.490;2022-11-30T17:28:42;9.30;99.90
41447;DHT22;27185;52.040;4.490;2022-11-30T17:31:28;9.20;99.90
41447;DHT22;27185;52.040;4.490;2022-11-30T17:34:14;9.10;99.90
41447;DHT22;27185;52.040;4.490;2022-11-30T17:36:59;9.00;99.90
41447;DHT22;27185;52.040;4.490;2022-11-30T17:39:45;8.90;99.90
41447;DHT22;27185;52.040;4.490;2022-11-30T17:42:31;8.90;99.90
41447;DHT22;27185;52.040;4.490;2022-11-30T17:45:16;8.80;99.90
41447;DHT22;27185;52.040;4.490;2022-11-30T17:48:02;8.70;99.90
41447;DHT22;27185;52.040;4.490;2022-11-30T17:50:51;8.60;99.90
41447;DHT22;27185;52.040;4.490;2022-11-30T17:53:37;8.60;99.90
41447;DHT22;27185;52.040;4.490;2022-11-30T17:56:23;8.50;99.90
41447;DHT22;27185;52.040;4.490;2022-11-30T17:59:10;8.50;99.90
41447;DHT22;27185;52.040;4.490;2022-11-30T18:01:56;8.40;99.90
41447;DHT22;27185;52.040;4.490;2022-11-30T18:04:41;8.30;99.90
41447;DHT22;27185;52.040;4.490;2022-11-30T18:07:27;8.30;99.90
41447;DHT22;27185;52.040;4.490;2022-11-30T18:10:13;8.20;99.90
41447;DHT22;27185;52.040;4.490;2022-11-30T18:12:59;8.10;99.90
41447;DHT22;27185;52.040;4.490;2022-11-30T18:15:44;8.10;99.90
41447;DHT22;27185;52.040;4.490;2022-11-30T18:18:30;8.00;99.90
41447;DHT22;27185;52.040;4.490;2022-11-30T18:21:18;8.00;99.90
41447;DHT22;27185;52.040;4.490;2022-11-30T18:24:05;7.90;99.90
41447;DHT22;27185;52.040;4.490;2022-11-30T18:26:51;7.80;99.90
41447;DHT22;27185;52.040;4.490;2022-11-30T18:29:37;7.80;99.90
41447;DHT22;27185;52.040;4.490;2022-11-30T18:32:22;7.70;99.90
41447;DHT22;27185;52.040;4.490;2022-11-30T18:35:08;7.60;99.90
41447;DHT22;27185;52.040;4.490;2022-11-30T18:37:54;7.60;99.90
41447;DHT22;27185;52.040;4.490;2022-11-30T18:40:40;7.50;99.90
41447;DHT22;27185;52.040;4.490;2022-11-30T18:43:25;7.50;99.90
41447;DHT22;27185;52.040;4.490;2022-11-30T18:46:11;7.40;99.90
41447;DHT22;27185;52.040;4.490;2022-11-30T18:48:57;7.40;99.90
41447;DHT22;27185;52.040;4.490;2022-11-30T18:51:43;7.30;99.90
41447;DHT22;27185;52.040;4.490;2022-11-30T18:54:29;7.30;99.90
41447;DHT22;27185;52.040;4.490;2022-11-30T18:57:15;7.20;99.90
41447;DHT22;27185;52.040;4.490;2022-11-30T19:00:03;7.20;99.90
41447;DHT22;27185;52.040;4.490;2022-11-30T19:02:49;7.10;99.90
41447;DHT22;27185;52.040;4.490;2022-11-30T19:05:35;7.10;99.90
41447;DHT22;27185;52.040;4.490;2022-11-30T19:08:22;7.10;99.90
41447;DHT22;27185;52.040;4.490;2022-11-30T19:11:08;7.00;99.90